CheckWX is a tool to help pilots better visualize weather data.  It is not intended as a substitute for an official pre-flight weather briefing.

17:19:08 UTC

LQSA TAF
Sarajevo International Airport
Sarajevo, Bosnia and Herzegovina
TAF LQSA 181100Z 1812/1912 VRB02KT 9999 SCT030 SCT045TCU TX28/1912Z TN14/1903Z TEMPO 1812/1818 VRB13KT TSRA FEW015 FEW035CB BKN045 BECMG 1818/1820 CAVOK TEMPO 1909/1912 SHRA SCT030 SCT045TCU

Jun-18@
12:00 UTC

Jun-18 @ 12:00 UTC

Jun-18@
18:00 UTC

Jun-18 @ 18:00 UTC

TAF LQSA 181100Z 1812/1912 VRB02KT 9999 SCT030 SCT045TCU TX28/1912Z TN14/1903Z
Wind
  • Variable at 2 KTS
Cloud Levels
  • Scattered at 3,000' AGL
  • Scattered at 4,500' AGL

Jun-18@
12:00 UTC

Jun-18 @ 12:00 UTC

Jun-18@
18:00 UTC

Jun-18 @ 18:00 UTC

TEMPO 1812/1818 VRB13KT TSRA FEW015 FEW035CB BKN045

Temporary

Temporary Changes expected for less than half the time period

Wind
  • Variable at 13 KTS
Conditions
Thunderstorm, Rain
Cloud Levels
  • Few at 1,500' AGL
  • Few at 3,500' AGL
  • Broken at 4,500' AGL

Jun-18@
18:00 UTC

Jun-18 @ 18:00 UTC

Jun-19@
12:00 UTC

Jun-19 @ 12:00 UTC

BECMG 1818/1820 CAVOK

Becoming

Becoming Conditions expected by Tue, Jun 18, 2019 @ 20:00 UTC

Wind
  • Variable at 2 KTS
Conditions
No significant weather
Cloud Levels
  • No significant clouds

Jun-19@
09:00 UTC

Jun-19 @ 09:00 UTC

Jun-19@
12:00 UTC

Jun-19 @ 12:00 UTC

TEMPO 1909/1912 SHRA SCT030 SCT045TCU

Temporary

Temporary Changes expected for less than half the time period

Conditions
Rain
Cloud Levels
  • Scattered at 3,000' AGL
  • Scattered at 4,500' AGL